Airfield :
LOGIN :

Register | Disclaimer

   EN    FR    IT 

 










Legend :    VFR   Marginal VFR   IFR   Intensive IFR   Very Intensive IFR
Visi :
Ceiling :
>= 8 km
>= 3000ft
5 to 8 km
1000 to 3000 ft
1500m to 5 km
500 to 1000 ft
800 to 1500m
200 to 500 ft
< 800m
< 200 ft
Symbols :   Thunderstorms  Fog  Heavy snow  Heavy precipitations  Wind > 20 kt
SIGMETs :     Misc.  Thunderstorms  Icing  Turbulence  Mountain Waves  Volcanic Ashes







- Airport Elevation : 461 ft
- IATA code : WIE


ETOU - Wiesbaden Army

CURRENT METAR :
  • 190656Z AUTO 00000KT 9999 CLR 09/08 A2994 RMK AO2 SLP143 T00890078

EXPIRED METARs :
  • 190556Z AUTO 00000KT 8000 BR OVC065 08/07 A2994 RMK AO2 SLP142 T00840072 10094 20069 55001
  • 190456Z AUTO 00000KT 8000 BR SCT075 08/07 A2993 RMK AO2 SLP138 T00750066

TAF TAF ETOU
Valid from the 19 at 03:00 until the 20 at 09:00 UTC


190302Z 1903/2009 VRB06KT 8000 BR SKC QNH2990INS
BECMG 1906/1907 22007KT 9999 NSW FEW100 QNH2985INS
BECMG 2003/2004 22009KT 9999 SCT050 BKN070 610709 QNH2980INS
BECMG 2007/2008 22010G15KT 8000 -SHRA SCT030 BKN050 BKN070 610709 QNH2979INS TX18/1913Z TN06/1903Z
No reported NOTAMs for that airfield.



MET'MAP, your aeronautical weather chart ! - Copyright ORBIFLY December 2007 - Disclaimer

ORBIFLY MET'MAP TEAM :

Programming & Development : Alexandra Zaïnal
Concept & Development : Baudouin d'Aumeries
Co-Development & Prog : Marc-Olivier Méhu
Technical & hardware support : Manuel Goepfert

Contact : metmap@orbifly.com




SOURCES & CREDITS :

   NOAA